Raysville, Indiana
Current Conditions -  °F | °C
As of 10:54 AM on Friday 31 Oct 2014 (Local Time) from KMQJ Reporting Station
Overcast Overcast  
Wind Chill: 31°   Ceiling: 1200
Heat Index: 41°   Visibility: 7mi
Dew Point: 39°   Wind: 23mph
Humidity: 93%   Direction: 330°NNW
Pressure: 30"   Gusts: NA
Location:  39.8283°N, 85.543°W
Report Text: KMQJ 311454Z AUTO 33020KT 7SM SCT008 BKN012 OVC018 05/04 A3000 RMK AO1
Loading
Personal Weather Stations






























Interactive Weather Map
Tropical Storm Tracking
New forecast layout! Learn more

10-Day Weather Forecast

Advertisements
Track Severe Weather on mobile